KSAD/SAD METAR and TAF weather

Enter ICAO airport designator
Station Type Date Time Source
KSAD METAR 2021/09/20 04:51 UTC NOAA

KSAD 200451Z AUTO 30008KT 10SM CLR 26/15 A2994 RMK AO2 SLP086 T02610150


Station Type Date Time Source
KSAD Decoded METAR 2021/09/20 04:51 UTC NOAA

SAFFORD MUNICIPAL AIRPORT, AZ, United States (KSAD) 32-51N 109-38W 962M
Sep 20, 2021 - 12:51 AM EDT / 2021.09.20 0451 UTC
Wind: from the WNW (300 degrees) at 9 MPH (8 KT):0
Visibility: 10 mile(s):0
Sky conditions: clear
Temperature: 79.0 F (26.1 C)
Dew Point: 59.0 F (15.0 C)
Relative Humidity: 50%
Pressure (altimeter): 29.94 in. Hg (1013 hPa)
ob: KSAD 200451Z AUTO 30008KT 10SM CLR 26/15 A2994 RMK AO2 SLP086 T02610150
cycle: 5

Station Type Date Time Source
KSAD TAF UTC NOAA

Error!

Example: see airport list